createdAt,value
2017-10-14T00:00:29.189Z,0
2017-10-14T00:01:09.783Z,0
2017-10-14T00:01:50.348Z,0
2017-10-14T00:02:30.923Z,0
2017-10-14T00:03:11.496Z,0
2017-10-14T00:03:52.059Z,0
2017-10-14T00:04:32.636Z,0
2017-10-14T00:05:13.186Z,0
2017-10-14T00:05:53.745Z,0
2017-10-14T00:06:37.010Z,0
2017-10-14T00:07:17.614Z,0
2017-10-14T00:07:58.179Z,0
2017-10-14T00:08:38.741Z,0
2017-10-14T00:09:19.335Z,0
2017-10-14T00:09:59.884Z,0
2017-10-14T00:10:40.455Z,0
2017-10-14T00:11:21.052Z,0
2017-10-14T00:12:01.625Z,0
2017-10-14T00:12:42.199Z,0
2017-10-14T00:13:22.775Z,0
2017-10-14T00:14:03.339Z,0
2017-10-14T00:14:43.915Z,0
2017-10-14T00:15:24.480Z,0
2017-10-14T00:16:05.058Z,0
2017-10-14T00:16:45.619Z,0
2017-10-14T00:17:26.203Z,0
2017-10-14T00:18:06.797Z,0
2017-10-14T00:18:47.390Z,0
2017-10-14T00:19:27.949Z,0
2017-10-14T00:20:08.526Z,0
2017-10-14T00:20:49.090Z,0
2017-10-14T00:21:29.654Z,0
2017-10-14T00:22:10.212Z,0
2017-10-14T00:22:50.771Z,0
2017-10-14T00:23:31.343Z,0
2017-10-14T00:24:11.914Z,0
2017-10-14T00:24:52.474Z,0
2017-10-14T00:27:05.291Z,0
2017-10-14T00:27:45.852Z,0
2017-10-14T00:28:26.412Z,0
2017-10-14T00:29:06.990Z,0
2017-10-14T00:29:47.590Z,0
2017-10-14T00:30:28.159Z,0
2017-10-14T00:31:08.740Z,0
2017-10-14T00:31:49.304Z,0
2017-10-14T00:32:29.857Z,0
2017-10-14T00:33:10.460Z,0
2017-10-14T00:33:51.034Z,0
2017-10-14T00:34:31.618Z,0
2017-10-14T00:35:12.192Z,0
2017-10-14T00:35:52.759Z,0
2017-10-14T00:36:33.346Z,0
2017-10-14T00:37:13.951Z,0
2017-10-14T00:37:54.519Z,0
2017-10-14T00:38:35.118Z,0
2017-10-14T00:39:15.708Z,0
2017-10-14T00:39:56.300Z,0
2017-10-14T00:40:36.873Z,0
2017-10-14T00:41:17.446Z,0
2017-10-14T00:41:58.031Z,0
2017-10-14T00:42:38.600Z,0
2017-10-14T00:43:19.185Z,0
2017-10-14T00:43:59.761Z,0
2017-10-14T00:44:40.333Z,0
2017-10-14T00:45:20.907Z,0
2017-10-14T00:46:01.494Z,0
2017-10-14T00:46:42.071Z,0
2017-10-14T00:47:22.666Z,0
2017-10-14T00:48:03.257Z,0
2017-10-14T00:48:43.825Z,0
2017-10-14T00:49:24.463Z,0
2017-10-14T00:50:05.032Z,0
2017-10-14T00:50:45.653Z,0
2017-10-14T00:51:26.235Z,0
2017-10-14T00:52:06.804Z,0
2017-10-14T00:52:47.374Z,0
2017-10-14T00:53:28.002Z,0
2017-10-14T00:54:08.617Z,0
2017-10-14T00:54:49.233Z,0
2017-10-14T00:55:29.795Z,0
2017-10-14T00:56:10.359Z,0
2017-10-14T00:56:50.915Z,0
2017-10-14T00:57:31.479Z,0
2017-10-14T00:58:12.090Z,0
2017-10-14T00:58:52.649Z,0
2017-10-14T00:59:33.224Z,0
2017-10-14T01:00:13.821Z,0
2017-10-14T01:00:54.399Z,0
2017-10-14T01:01:34.970Z,0
2017-10-14T01:02:15.542Z,0
2017-10-14T01:02:56.125Z,0
2017-10-14T01:03:36.691Z,0
2017-10-14T01:04:17.259Z,0
2017-10-14T01:04:57.837Z,0
2017-10-14T01:05:38.390Z,0
2017-10-14T01:06:18.968Z,0
2017-10-14T01:06:59.552Z,0
2017-10-14T01:07:40.125Z,0
2017-10-14T01:08:20.675Z,0
2017-10-14T01:09:01.237Z,0
2017-10-14T01:09:41.791Z,0
2017-10-14T01:10:22.358Z,0
2017-10-14T01:11:02.940Z,0
2017-10-14T01:11:43.499Z,0
2017-10-14T01:12:24.071Z,0
2017-10-14T01:13:04.636Z,0
2017-10-14T01:13:45.254Z,0
2017-10-14T01:14:25.865Z,0
2017-10-14T01:15:06.411Z,0
2017-10-14T01:15:46.975Z,0
2017-10-14T01:16:27.565Z,0
2017-10-14T01:17:08.134Z,0
2017-10-14T01:17:48.740Z,0
2017-10-14T01:18:29.321Z,0
2017-10-14T01:19:09.904Z,0
2017-10-14T01:19:50.489Z,0
2017-10-14T01:20:31.054Z,0
2017-10-14T01:21:11.625Z,0
2017-10-14T01:21:52.214Z,0
2017-10-14T01:22:32.775Z,0
2017-10-14T01:23:13.422Z,0
2017-10-14T01:23:53.992Z,0
2017-10-14T01:24:34.583Z,0
2017-10-14T01:25:15.154Z,0
2017-10-14T01:25:55.750Z,0
2017-10-14T01:26:36.335Z,0
2017-10-14T01:27:16.909Z,0
2017-10-14T01:27:57.514Z,0
2017-10-14T01:28:38.089Z,0
2017-10-14T01:29:18.672Z,0
2017-10-14T01:29:59.244Z,0
2017-10-14T01:30:39.801Z,0
2017-10-14T01:31:20.364Z,0
2017-10-14T01:32:00.924Z,0
2017-10-14T01:32:41.508Z,0
2017-10-14T01:33:22.085Z,0
2017-10-14T01:34:02.649Z,0
2017-10-14T01:34:43.209Z,0
2017-10-14T01:35:23.759Z,0
2017-10-14T01:36:04.336Z,0
2017-10-14T01:36:44.900Z,0
2017-10-14T01:37:25.455Z,0
2017-10-14T01:38:06.031Z,0
2017-10-14T01:38:46.601Z,0
2017-10-14T01:39:27.235Z,0
2017-10-14T01:40:07.803Z,0
2017-10-14T01:40:48.374Z,0
2017-10-14T01:41:28.950Z,0
2017-10-14T01:42:09.511Z,0
2017-10-14T01:42:50.110Z,0
2017-10-14T01:43:30.662Z,0
2017-10-14T01:44:11.227Z,0
2017-10-14T01:44:51.813Z,0
2017-10-14T01:45:32.387Z,0
2017-10-14T01:46:12.955Z,0
2017-10-14T01:46:53.519Z,0
2017-10-14T01:47:34.106Z,0
2017-10-14T01:48:14.687Z,0
2017-10-14T01:48:55.272Z,0
2017-10-14T01:49:35.859Z,0
2017-10-14T01:50:16.436Z,0
2017-10-14T01:50:57.024Z,0
2017-10-14T01:51:37.620Z,0
2017-10-14T01:52:18.227Z,0
2017-10-14T01:52:58.817Z,0
2017-10-14T01:53:39.399Z,0
2017-10-14T01:54:19.995Z,0
2017-10-14T01:55:00.567Z,0
2017-10-14T01:55:41.140Z,0
2017-10-14T01:56:21.751Z,0
2017-10-14T01:57:02.334Z,0
2017-10-14T01:57:42.906Z,0
2017-10-14T01:58:23.506Z,0
2017-10-14T01:59:04.137Z,0
2017-10-14T01:59:44.727Z,0
2017-10-14T02:00:25.286Z,0
2017-10-14T02:01:05.862Z,0
2017-10-14T02:01:46.437Z,0
2017-10-14T02:02:27.011Z,0
2017-10-14T02:03:07.605Z,0
2017-10-14T02:03:48.154Z,0
2017-10-14T02:04:28.718Z,0
2017-10-14T02:05:09.297Z,0
2017-10-14T02:05:49.872Z,0
2017-10-14T02:06:30.433Z,0
2017-10-14T02:07:11.025Z,0
2017-10-14T02:07:51.605Z,0
2017-10-14T02:08:32.175Z,0
2017-10-14T02:09:12.751Z,0
2017-10-14T02:09:53.328Z,0
2017-10-14T02:10:33.885Z,0
2017-10-14T02:11:14.501Z,0
2017-10-14T02:11:55.113Z,0
2017-10-14T02:12:35.677Z,0
2017-10-14T02:13:16.237Z,0
2017-10-14T02:13:56.799Z,0
2017-10-14T02:14:37.359Z,0
2017-10-14T02:15:17.949Z,0
2017-10-14T02:15:58.516Z,0
2017-10-14T02:16:39.116Z,0
2017-10-14T02:17:19.679Z,0
2017-10-14T02:18:00.262Z,0
2017-10-14T02:18:40.836Z,0
2017-10-14T02:19:21.418Z,0
2017-10-14T02:20:01.992Z,0
2017-10-14T02:20:42.567Z,0
2017-10-14T02:21:23.170Z,0
2017-10-14T02:22:03.738Z,0
2017-10-14T02:22:44.323Z,0
2017-10-14T02:23:24.911Z,0
2017-10-14T02:24:05.502Z,0
2017-10-14T02:24:46.080Z,0
2017-10-14T02:25:26.683Z,0
2017-10-14T02:26:07.253Z,0
2017-10-14T02:26:49.774Z,0
2017-10-14T02:27:30.357Z,0
2017-10-14T02:28:10.933Z,0
2017-10-14T02:28:51.557Z,0
2017-10-14T02:29:32.123Z,0
2017-10-14T02:30:12.713Z,0
2017-10-14T02:30:53.269Z,0
2017-10-14T02:31:33.838Z,0
2017-10-14T02:32:14.400Z,0
2017-10-14T02:32:54.985Z,0
2017-10-14T02:33:35.588Z,0
2017-10-14T02:34:16.144Z,0
2017-10-14T02:34:56.730Z,0
2017-10-14T02:35:37.273Z,0
2017-10-14T02:36:17.901Z,0
2017-10-14T02:36:58.476Z,0
2017-10-14T02:37:39.070Z,0
2017-10-14T02:38:19.643Z,0
2017-10-14T02:39:00.220Z,0
2017-10-14T02:39:40.804Z,0
2017-10-14T02:40:21.368Z,0
2017-10-14T02:41:01.946Z,0
2017-10-14T02:41:42.511Z,0
2017-10-14T02:42:23.097Z,0
2017-10-14T02:43:03.657Z,0
2017-10-14T02:43:44.220Z,0
2017-10-14T02:44:24.781Z,0
2017-10-14T02:45:05.337Z,0
2017-10-14T02:45:45.892Z,0
2017-10-14T02:46:26.465Z,0
2017-10-14T02:47:07.016Z,0
2017-10-14T02:47:47.576Z,0
2017-10-14T02:48:28.149Z,0
2017-10-14T02:49:08.710Z,0
2017-10-14T02:49:49.273Z,0
2017-10-14T02:50:29.859Z,0
2017-10-14T02:51:10.421Z,0
2017-10-14T02:51:50.990Z,0
2017-10-14T02:52:31.562Z,0
2017-10-14T02:53:12.144Z,0
2017-10-14T02:53:52.698Z,0
2017-10-14T02:54:33.271Z,0
2017-10-14T02:55:13.851Z,0
2017-10-14T02:55:54.408Z,0
2017-10-14T02:56:34.989Z,0
2017-10-14T02:57:15.559Z,0
2017-10-14T02:57:56.130Z,0
2017-10-14T02:58:36.681Z,0
2017-10-14T02:59:17.258Z,0
2017-10-14T02:59:57.819Z,0
2017-10-14T03:00:38.400Z,0
2017-10-14T03:01:18.994Z,0
2017-10-14T03:01:59.560Z,0
2017-10-14T03:02:40.124Z,0
2017-10-14T03:03:20.691Z,0
2017-10-14T03:04:01.262Z,0
2017-10-14T03:04:41.838Z,0
2017-10-14T03:05:22.413Z,0
2017-10-14T03:06:02.987Z,0
2017-10-14T03:06:43.539Z,0
2017-10-14T03:07:24.112Z,0
2017-10-14T03:08:04.679Z,0
2017-10-14T03:08:45.248Z,0
2017-10-14T03:09:25.817Z,0
2017-10-14T03:10:06.382Z,0
2017-10-14T03:10:46.950Z,0
2017-10-14T03:11:27.517Z,0
2017-10-14T03:12:08.092Z,0
2017-10-14T03:12:48.683Z,0
2017-10-14T03:13:29.261Z,0
2017-10-14T03:14:09.825Z,0
2017-10-14T03:14:50.387Z,0
2017-10-14T03:15:30.976Z,0
2017-10-14T03:16:11.562Z,0
2017-10-14T03:16:52.121Z,0
2017-10-14T03:17:32.685Z,0
2017-10-14T03:18:13.270Z,0
2017-10-14T03:18:53.840Z,0
2017-10-14T03:19:34.403Z,0
2017-10-14T03:20:14.991Z,0
2017-10-14T03:20:55.546Z,0
2017-10-14T03:21:36.110Z,0
2017-10-14T03:22:16.697Z,0
2017-10-14T03:22:57.260Z,0
2017-10-14T03:23:37.857Z,0
2017-10-14T03:24:18.428Z,0
2017-10-14T03:24:59.004Z,0
2017-10-14T03:25:39.584Z,0
2017-10-14T03:26:20.176Z,0
2017-10-14T03:27:00.735Z,0
2017-10-14T03:27:41.303Z,0
2017-10-14T03:28:21.872Z,0
2017-10-14T03:29:02.433Z,0
2017-10-14T03:29:43.018Z,0
2017-10-14T03:30:23.584Z,0
2017-10-14T03:31:04.165Z,0
2017-10-14T03:31:44.713Z,0
2017-10-14T03:32:25.297Z,0
2017-10-14T03:33:05.889Z,0
2017-10-14T03:33:46.456Z,0
2017-10-14T03:34:27.031Z,0
2017-10-14T03:35:07.606Z,0
2017-10-14T03:35:48.195Z,0
2017-10-14T03:36:28.775Z,0
2017-10-14T03:37:09.349Z,0
2017-10-14T03:37:49.928Z,0
2017-10-14T03:38:30.510Z,0
2017-10-14T03:39:11.076Z,0
2017-10-14T03:39:51.658Z,0
2017-10-14T03:40:32.227Z,0
2017-10-14T03:41:12.800Z,0
2017-10-14T03:41:53.381Z,0
2017-10-14T03:42:33.956Z,0
2017-10-14T03:43:14.524Z,0
2017-10-14T03:43:55.116Z,0
2017-10-14T03:44:35.678Z,0
2017-10-14T03:45:16.244Z,0
2017-10-14T03:45:56.812Z,0
2017-10-14T03:46:37.379Z,0
2017-10-14T03:47:17.954Z,0
2017-10-14T03:47:58.507Z,0
2017-10-14T03:48:39.089Z,0
2017-10-14T03:49:19.659Z,0
2017-10-14T03:50:00.233Z,0
2017-10-14T03:50:40.796Z,0
2017-10-14T03:51:21.373Z,0
2017-10-14T03:52:01.915Z,0
2017-10-14T03:52:42.485Z,0
2017-10-14T03:53:23.038Z,0
2017-10-14T03:54:03.623Z,0
2017-10-14T03:54:44.175Z,0
2017-10-14T03:55:24.744Z,0
2017-10-14T03:56:05.307Z,0
2017-10-14T03:56:45.875Z,0
2017-10-14T03:57:26.456Z,0
2017-10-14T03:58:07.054Z,0
2017-10-14T03:58:47.625Z,0
2017-10-14T03:59:28.200Z,0
2017-10-14T04:00:08.756Z,0
2017-10-14T04:00:49.322Z,0
2017-10-14T04:01:29.905Z,0
2017-10-14T04:02:10.467Z,0
2017-10-14T04:02:51.050Z,0
2017-10-14T04:03:31.614Z,0
2017-10-14T04:04:12.190Z,0
2017-10-14T04:04:52.765Z,0
2017-10-14T04:05:33.327Z,0
2017-10-14T04:06:13.894Z,0
2017-10-14T04:06:54.456Z,0
2017-10-14T04:07:35.024Z,0
2017-10-14T04:08:15.588Z,0
2017-10-14T04:08:56.150Z,0
2017-10-14T04:09:36.719Z,0
2017-10-14T04:10:17.286Z,0
2017-10-14T04:10:57.888Z,0
2017-10-14T04:11:38.456Z,0
2017-10-14T04:12:19.022Z,0
2017-10-14T04:12:59.682Z,0
2017-10-14T04:13:40.246Z,0
2017-10-14T04:14:20.816Z,0
2017-10-14T04:15:01.385Z,0
2017-10-14T04:15:41.953Z,0
2017-10-14T04:16:22.524Z,0
2017-10-14T04:17:03.084Z,0
2017-10-14T04:17:43.637Z,0
2017-10-14T04:18:24.232Z,0
2017-10-14T04:19:04.793Z,0
2017-10-14T04:19:45.358Z,0
2017-10-14T04:20:25.934Z,0
2017-10-14T04:21:06.511Z,0
2017-10-14T04:21:47.073Z,0
2017-10-14T04:22:27.648Z,0
2017-10-14T04:23:08.210Z,0
2017-10-14T04:23:48.778Z,0
2017-10-14T04:24:29.352Z,0
2017-10-14T04:25:09.919Z,0
2017-10-14T04:25:50.474Z,0
2017-10-14T04:26:31.049Z,0
2017-10-14T04:27:11.629Z,0
2017-10-14T04:27:52.201Z,0
2017-10-14T04:28:32.770Z,0
2017-10-14T04:29:13.347Z,0
2017-10-14T04:29:53.921Z,0
2017-10-14T04:30:34.484Z,0
2017-10-14T04:31:15.045Z,0
2017-10-14T04:31:55.633Z,0
2017-10-14T04:32:36.190Z,0
2017-10-14T04:33:16.766Z,0
2017-10-14T04:33:57.365Z,0
2017-10-14T04:34:37.957Z,0
2017-10-14T04:35:18.520Z,0
2017-10-14T04:35:59.087Z,0
2017-10-14T04:36:39.657Z,0
2017-10-14T04:37:20.228Z,0
2017-10-14T04:38:00.787Z,0
2017-10-14T04:38:41.357Z,0
2017-10-14T04:39:21.966Z,0
2017-10-14T04:40:02.501Z,0
2017-10-14T04:40:43.092Z,0
2017-10-14T04:41:23.673Z,0
2017-10-14T04:42:04.226Z,0
2017-10-14T04:42:44.788Z,0
2017-10-14T04:43:25.365Z,0
2017-10-14T04:44:05.947Z,0
2017-10-14T04:44:46.517Z,0
2017-10-14T04:45:27.097Z,0
2017-10-14T04:46:07.673Z,0
2017-10-14T04:46:48.249Z,0
2017-10-14T04:47:28.829Z,0
2017-10-14T04:48:09.404Z,0
2017-10-14T04:48:49.965Z,0
2017-10-14T04:49:30.549Z,0
2017-10-14T04:50:11.139Z,0
2017-10-14T04:50:51.707Z,0
2017-10-14T04:51:32.282Z,0
2017-10-14T04:52:12.844Z,0
2017-10-14T04:52:53.441Z,0
2017-10-14T04:53:34.007Z,0
2017-10-14T04:54:14.570Z,0
2017-10-14T04:54:55.155Z,0
2017-10-14T04:55:35.732Z,0
2017-10-14T04:56:16.293Z,0
2017-10-14T04:56:56.854Z,0
2017-10-14T04:57:37.463Z,0
2017-10-14T04:58:18.050Z,0
2017-10-14T04:58:58.631Z,0
2017-10-14T04:59:39.199Z,0
2017-10-14T05:00:19.767Z,0
2017-10-14T05:01:00.350Z,0
2017-10-14T05:01:40.913Z,0
2017-10-14T05:02:21.474Z,0
2017-10-14T05:03:02.044Z,0
2017-10-14T05:03:42.611Z,0
2017-10-14T05:04:23.171Z,0
2017-10-14T05:05:03.753Z,0
2017-10-14T05:05:44.324Z,0
2017-10-14T05:06:24.913Z,0
2017-10-14T05:07:05.490Z,0
2017-10-14T05:07:46.063Z,0
2017-10-14T05:08:26.645Z,0
2017-10-14T05:09:07.212Z,4
2017-10-14T05:09:47.768Z,4
2017-10-14T05:10:28.334Z,4
2017-10-14T05:11:08.950Z,0
2017-10-14T05:11:49.524Z,4
2017-10-14T05:12:30.084Z,4
2017-10-14T05:13:10.657Z,4
2017-10-14T05:13:51.220Z,4
2017-10-14T05:14:31.788Z,4
2017-10-14T05:15:12.355Z,8
2017-10-14T05:15:52.926Z,8
2017-10-14T05:16:33.495Z,12
2017-10-14T05:17:14.069Z,12
2017-10-14T05:17:54.638Z,12
2017-10-14T05:18:35.214Z,16
2017-10-14T05:19:15.777Z,12
2017-10-14T05:19:56.347Z,16
2017-10-14T05:20:36.913Z,20
2017-10-14T05:21:17.483Z,24
2017-10-14T05:21:58.043Z,28
2017-10-14T05:22:38.608Z,28
2017-10-14T05:23:19.171Z,32
2017-10-14T05:23:59.731Z,36
2017-10-14T05:24:40.284Z,36
2017-10-14T05:25:20.857Z,36
2017-10-14T05:26:01.410Z,36
2017-10-14T05:26:41.989Z,40
2017-10-14T05:27:22.561Z,44
2017-10-14T05:28:03.116Z,44
2017-10-14T05:28:43.671Z,44
2017-10-14T05:29:24.239Z,44
2017-10-14T05:30:04.803Z,40
2017-10-14T05:30:45.372Z,40
2017-10-14T05:31:25.947Z,40
2017-10-14T05:32:06.547Z,36
2017-10-14T05:32:47.122Z,36
2017-10-14T05:33:27.693Z,36
2017-10-14T05:34:08.256Z,36
2017-10-14T05:34:48.835Z,32
2017-10-14T05:35:29.397Z,28
2017-10-14T05:36:09.972Z,32
2017-10-14T05:36:50.566Z,32
2017-10-14T05:37:31.141Z,32
2017-10-14T05:38:11.721Z,32
2017-10-14T05:38:52.328Z,32
2017-10-14T05:39:32.903Z,32
2017-10-14T05:40:13.476Z,36
2017-10-14T05:40:54.049Z,36
2017-10-14T05:41:34.616Z,36
2017-10-14T05:42:15.182Z,36
2017-10-14T05:42:55.757Z,36
2017-10-14T05:43:36.338Z,36
2017-10-14T05:44:16.898Z,36
2017-10-14T05:44:57.496Z,40
2017-10-14T05:45:38.061Z,40
2017-10-14T05:46:18.631Z,44
2017-10-14T05:46:59.193Z,44
2017-10-14T05:47:39.772Z,44
2017-10-14T05:48:20.386Z,48
2017-10-14T05:49:00.969Z,44
2017-10-14T05:49:41.596Z,44
2017-10-14T05:50:22.172Z,44
2017-10-14T05:51:02.729Z,52
2017-10-14T05:51:43.341Z,48
2017-10-14T05:52:23.945Z,48
2017-10-14T05:53:04.489Z,48
2017-10-14T05:53:45.058Z,52
2017-10-14T05:54:25.624Z,52
2017-10-14T05:55:06.250Z,52
2017-10-14T05:55:46.820Z,56
2017-10-14T05:56:27.384Z,64
2017-10-14T05:57:07.964Z,64
2017-10-14T05:57:48.528Z,68
2017-10-14T05:58:29.086Z,68
2017-10-14T05:59:09.661Z,68
2017-10-14T05:59:50.222Z,68
2017-10-14T06:00:30.786Z,72
2017-10-14T06:01:11.373Z,76
2017-10-14T06:01:51.944Z,80
2017-10-14T06:02:32.502Z,80
2017-10-14T06:03:13.082Z,88
2017-10-14T06:03:53.670Z,84
2017-10-14T06:04:34.233Z,88
2017-10-14T06:05:14.818Z,88
2017-10-14T06:05:55.390Z,88
2017-10-14T06:06:35.990Z,88
2017-10-14T06:07:16.567Z,88
2017-10-14T06:07:57.131Z,84
2017-10-14T06:08:37.733Z,88
2017-10-14T06:09:18.297Z,88
2017-10-14T06:09:58.886Z,88
2017-10-14T06:10:39.449Z,88
2017-10-14T06:11:20.019Z,88
2017-10-14T06:12:00.583Z,96
2017-10-14T06:12:41.168Z,112
2017-10-14T06:13:21.741Z,120
2017-10-14T06:14:02.316Z,120
2017-10-14T06:14:42.890Z,112
2017-10-14T06:15:23.474Z,112
2017-10-14T06:16:04.044Z,108
2017-10-14T06:16:44.632Z,104
2017-10-14T06:17:25.199Z,100
2017-10-14T06:18:05.770Z,100
2017-10-14T06:18:46.401Z,96
2017-10-14T06:19:27.007Z,96
2017-10-14T06:20:07.598Z,100
2017-10-14T06:20:48.159Z,104
2017-10-14T06:21:28.726Z,108
2017-10-14T06:22:09.296Z,112
2017-10-14T06:22:49.877Z,120
2017-10-14T06:23:30.444Z,124
2017-10-14T06:24:11.032Z,124
2017-10-14T06:24:51.605Z,128
2017-10-14T06:25:32.177Z,132
2017-10-14T06:26:12.735Z,132
2017-10-14T06:26:53.293Z,136
2017-10-14T06:27:33.871Z,144
2017-10-14T06:28:14.432Z,140
2017-10-14T06:28:55.010Z,140
2017-10-14T06:29:35.574Z,144
2017-10-14T06:30:16.134Z,152
2017-10-14T06:30:56.708Z,168
2017-10-14T06:31:37.268Z,172
2017-10-14T06:32:17.837Z,180
2017-10-14T06:32:58.399Z,188
2017-10-14T06:33:38.967Z,192
2017-10-14T06:34:19.543Z,196
2017-10-14T06:35:00.093Z,192
2017-10-14T06:35:40.683Z,184
2017-10-14T06:36:21.261Z,184
2017-10-14T06:37:01.844Z,188
2017-10-14T06:37:42.407Z,200
2017-10-14T06:38:22.972Z,208
2017-10-14T06:39:03.528Z,212
2017-10-14T06:39:44.097Z,224
2017-10-14T06:40:24.660Z,240
2017-10-14T06:41:05.223Z,248
2017-10-14T06:41:45.791Z,260
2017-10-14T06:42:26.360Z,268
2017-10-14T06:43:06.919Z,292
2017-10-14T06:43:47.491Z,324
2017-10-14T06:44:28.059Z,368
2017-10-14T06:45:08.624Z,400
2017-10-14T06:45:49.210Z,412
2017-10-14T06:46:29.806Z,432
2017-10-14T06:47:10.375Z,452
2017-10-14T06:47:50.966Z,492
2017-10-14T06:48:31.529Z,564
2017-10-14T06:49:12.095Z,620
2017-10-14T06:49:52.679Z,664
2017-10-14T06:50:33.250Z,728
2017-10-14T06:51:13.821Z,764
2017-10-14T06:51:54.383Z,764
2017-10-14T06:52:34.963Z,768
2017-10-14T06:53:15.523Z,776
2017-10-14T06:53:56.088Z,780
2017-10-14T06:54:36.645Z,804
2017-10-14T06:55:17.246Z,796
2017-10-14T06:55:57.828Z,788
2017-10-14T06:56:38.401Z,776
2017-10-14T06:57:18.983Z,760
2017-10-14T06:57:59.570Z,760
2017-10-14T06:58:40.147Z,792
2017-10-14T06:59:20.719Z,812
2017-10-14T07:00:01.312Z,800
2017-10-14T07:00:41.885Z,800
2017-10-14T07:01:22.467Z,820
2017-10-14T07:02:03.044Z,832
2017-10-14T07:02:43.616Z,828
2017-10-14T07:03:24.252Z,848
2017-10-14T07:04:04.858Z,868
2017-10-14T07:04:45.426Z,964
2017-10-14T07:05:26.355Z,1140
2017-10-14T07:06:07.098Z,1136
2017-10-14T07:06:47.659Z,1068
2017-10-14T07:07:28.282Z,1036
2017-10-14T07:08:09.276Z,1036
2017-10-14T07:08:49.943Z,1084
2017-10-14T07:09:30.532Z,1168
2017-10-14T07:10:11.096Z,1328
2017-10-14T07:10:51.668Z,1404
2017-10-14T07:11:32.249Z,1316
2017-10-14T07:12:12.824Z,1288
2017-10-14T07:12:53.380Z,1272
2017-10-14T07:13:33.985Z,1264
2017-10-14T07:14:14.559Z,1244
2017-10-14T07:14:55.183Z,1196
2017-10-14T07:15:35.774Z,1156
2017-10-14T07:16:16.405Z,1160
2017-10-14T07:16:56.987Z,1156
2017-10-14T07:17:37.571Z,1200
2017-10-14T07:18:18.149Z,1272
2017-10-14T07:18:58.726Z,1308
2017-10-14T07:19:39.317Z,1400
2017-10-14T07:20:19.895Z,1512
2017-10-14T07:21:00.480Z,1640
2017-10-14T07:21:41.116Z,1752
2017-10-14T07:22:21.672Z,1800
2017-10-14T07:23:02.244Z,1716
2017-10-14T07:23:42.833Z,1592
2017-10-14T07:24:23.409Z,1468
2017-10-14T07:25:04.012Z,1444
2017-10-14T07:25:44.596Z,1552
2017-10-14T07:26:25.152Z,1796
2017-10-14T07:27:05.741Z,1788
2017-10-14T07:27:46.333Z,1728
2017-10-14T07:28:26.908Z,1564
2017-10-14T07:29:07.479Z,1500
2017-10-14T07:29:48.053Z,1536
2017-10-14T07:30:28.602Z,1612
2017-10-14T07:31:09.165Z,1692
2017-10-14T07:31:49.739Z,1912
2017-10-14T07:32:30.304Z,2020
2017-10-14T07:33:10.921Z,1956
2017-10-14T07:33:51.497Z,1828
2017-10-14T07:34:32.065Z,1712
2017-10-14T07:35:12.649Z,1652
2017-10-14T07:35:53.214Z,1564
2017-10-14T07:36:33.793Z,1568
2017-10-14T07:37:14.368Z,1492
2017-10-14T07:37:54.936Z,1420
2017-10-14T07:38:35.495Z,1352
2017-10-14T07:39:16.084Z,1284
2017-10-14T07:39:56.676Z,1208
2017-10-14T07:40:37.248Z,1164
2017-10-14T07:41:18.004Z,1224
2017-10-14T07:41:58.542Z,1236
2017-10-14T07:42:39.121Z,1220
2017-10-14T07:43:19.700Z,1200
2017-10-14T07:44:00.276Z,1112
2017-10-14T07:44:40.901Z,1100
2017-10-14T07:45:22.825Z,1136
2017-10-14T07:46:03.394Z,1072
2017-10-14T07:46:43.962Z,1088
2017-10-14T07:47:24.539Z,1132
2017-10-14T07:48:05.130Z,1216
2017-10-14T07:48:45.704Z,1280
2017-10-14T07:49:26.287Z,1272
2017-10-14T07:50:06.946Z,1348
2017-10-14T07:50:47.489Z,1444
2017-10-14T07:51:28.190Z,1608
2017-10-14T07:52:08.927Z,1860
2017-10-14T07:52:49.493Z,2256
2017-10-14T07:53:30.055Z,2860
2017-10-14T07:54:10.615Z,3220
2017-10-14T07:54:51.180Z,3548
2017-10-14T07:55:31.775Z,4536
2017-10-14T07:56:12.358Z,5464
2017-10-14T07:56:52.945Z,6268
2017-10-14T07:57:33.532Z,7276
2017-10-14T07:58:14.133Z,8260
2017-10-14T07:58:54.687Z,9432
2017-10-14T07:59:35.288Z,8748
2017-10-14T08:00:15.853Z,6764
2017-10-14T08:00:56.426Z,8152
2017-10-14T08:01:36.992Z,9748
2017-10-14T08:02:17.552Z,10460
2017-10-14T08:02:58.130Z,7192
2017-10-14T08:03:38.701Z,6028
2017-10-14T08:04:19.472Z,5580
2017-10-14T08:05:00.047Z,5136
2017-10-14T08:05:40.614Z,4824
2017-10-14T08:06:21.193Z,4632
2017-10-14T08:07:01.758Z,4464
2017-10-14T08:07:42.329Z,4592
2017-10-14T08:08:22.917Z,4784
2017-10-14T08:09:03.507Z,6068
2017-10-14T08:09:44.072Z,18560
2017-10-14T08:10:24.659Z,18336
2017-10-14T08:11:05.224Z,13004
2017-10-14T08:11:45.816Z,9128
2017-10-14T08:12:26.381Z,9236
2017-10-14T08:13:06.939Z,9084
2017-10-14T08:13:47.527Z,12756
2017-10-14T08:14:28.090Z,6192
2017-10-14T08:15:08.695Z,6448
2017-10-14T08:15:49.262Z,6820
2017-10-14T08:16:29.844Z,8608
2017-10-14T08:17:10.410Z,8964
2017-10-14T08:17:51.011Z,6992
2017-10-14T08:18:31.574Z,5964
2017-10-14T08:19:12.285Z,4644
2017-10-14T08:19:52.850Z,3424
2017-10-14T08:20:33.413Z,3120
2017-10-14T08:21:14.039Z,3424
2017-10-14T08:21:54.608Z,3840
2017-10-14T08:22:35.179Z,3600
2017-10-14T08:23:15.775Z,3468
2017-10-14T08:23:56.342Z,3880
2017-10-14T08:24:36.902Z,4932
2017-10-14T08:25:17.481Z,4104
2017-10-14T08:25:58.061Z,3324
2017-10-14T08:26:38.633Z,3316
2017-10-14T08:27:19.227Z,2648
2017-10-14T08:27:59.793Z,2244
2017-10-14T08:28:40.371Z,2204
2017-10-14T08:29:20.948Z,2268
2017-10-14T08:30:01.541Z,2212
2017-10-14T08:30:42.114Z,2132
2017-10-14T08:31:22.687Z,2000
2017-10-14T08:32:03.255Z,1856
2017-10-14T08:32:43.823Z,1788
2017-10-14T08:33:24.393Z,1692
2017-10-14T08:34:04.957Z,1664
2017-10-14T08:34:45.521Z,1916
2017-10-14T08:35:26.080Z,1804
2017-10-14T08:36:06.641Z,1676
2017-10-14T08:36:47.203Z,1676
2017-10-14T08:37:27.770Z,1600
2017-10-14T08:38:08.350Z,1536
2017-10-14T08:38:48.912Z,1592
2017-10-14T08:39:29.487Z,1712
2017-10-14T08:40:10.080Z,1680
2017-10-14T08:40:50.654Z,1740
2017-10-14T08:41:31.228Z,1884
2017-10-14T08:42:11.814Z,2064
2017-10-14T08:42:52.372Z,2228
2017-10-14T08:43:32.944Z,2352
2017-10-14T08:44:13.519Z,2552
2017-10-14T08:44:54.087Z,2772
2017-10-14T08:45:34.686Z,2964
2017-10-14T08:46:15.795Z,3080
2017-10-14T08:46:56.380Z,3036
2017-10-14T08:47:36.958Z,2968
2017-10-14T08:48:18.324Z,3028
2017-10-14T08:48:58.936Z,2944
2017-10-14T08:49:39.524Z,3124
2017-10-14T08:50:20.101Z,2712
2017-10-14T08:51:00.671Z,2620
2017-10-14T08:51:41.243Z,2476
2017-10-14T08:52:21.818Z,1772
2017-10-14T08:53:02.377Z,1396
2017-10-14T08:53:42.935Z,1272
2017-10-14T08:54:23.560Z,1256
2017-10-14T08:55:04.177Z,1312
2017-10-14T08:55:44.757Z,1420
2017-10-14T08:56:25.349Z,1492
2017-10-14T08:57:05.917Z,1472
2017-10-14T08:57:46.483Z,1420
2017-10-14T08:58:27.049Z,1312
2017-10-14T08:59:07.734Z,1260
2017-10-14T08:59:48.566Z,1196
2017-10-14T09:00:29.357Z,1212
2017-10-14T09:01:09.996Z,1192
2017-10-14T09:01:50.683Z,1112
2017-10-14T09:02:31.271Z,1084
2017-10-14T09:03:11.839Z,1124
2017-10-14T09:03:52.401Z,1224
2017-10-14T09:04:32.977Z,1248
2017-10-14T09:05:13.543Z,1220
2017-10-14T09:05:54.098Z,1268
2017-10-14T09:06:34.681Z,1324
2017-10-14T09:07:15.248Z,1308
2017-10-14T09:07:55.852Z,1300
2017-10-14T09:08:36.457Z,1300
2017-10-14T09:09:17.052Z,1284
2017-10-14T09:09:57.858Z,1292
2017-10-14T09:10:38.431Z,1316
2017-10-14T09:11:19.001Z,1360
2017-10-14T09:11:59.573Z,1400
2017-10-14T09:12:40.172Z,1468
2017-10-14T09:13:20.769Z,1564
2017-10-14T09:14:01.338Z,1680
2017-10-14T09:14:41.902Z,1748
2017-10-14T09:15:22.574Z,1792
2017-10-14T09:16:03.142Z,1820
2017-10-14T09:16:43.823Z,1884
2017-10-14T09:17:24.560Z,1968
2017-10-14T09:18:05.211Z,2052
2017-10-14T09:18:45.921Z,2032
2017-10-14T09:19:26.583Z,2028
2017-10-14T09:20:07.309Z,1960
2017-10-14T09:20:48.097Z,1824
2017-10-14T09:21:28.815Z,1716
2017-10-14T09:22:09.384Z,1680
2017-10-14T09:22:49.973Z,1724
2017-10-14T09:23:30.546Z,1676
2017-10-14T09:24:11.099Z,1604
2017-10-14T09:24:51.689Z,1552
2017-10-14T09:25:32.275Z,1524
2017-10-14T09:26:13.019Z,1512
2017-10-14T09:26:53.841Z,1520
2017-10-14T09:27:34.452Z,1512
2017-10-14T09:28:15.091Z,1496
2017-10-14T09:28:55.709Z,1492
2017-10-14T09:29:36.597Z,1492
2017-10-14T09:30:17.459Z,1516
2017-10-14T09:30:58.027Z,1472
2017-10-14T09:31:38.597Z,1408
2017-10-14T09:32:19.163Z,1388
2017-10-14T09:33:07.014Z,1364
2017-10-14T09:33:51.779Z,1328
2017-10-14T09:34:37.428Z,1352
2017-10-14T09:35:17.983Z,1348
2017-10-14T09:35:58.593Z,1344
2017-10-14T09:36:39.171Z,1344
2017-10-14T09:37:19.726Z,1312
2017-10-14T09:38:00.294Z,1312
2017-10-14T09:38:40.890Z,1332
2017-10-14T09:39:21.476Z,1372